createdAt,value
2022-09-14T00:00:02.721Z,6.63
2022-09-14T00:02:24.628Z,6.78
2022-09-14T00:04:26.309Z,7.87
2022-09-14T00:06:28.504Z,8.45
2022-09-14T00:08:30.101Z,7.70
2022-09-14T00:10:31.875Z,7.30
2022-09-14T00:12:33.723Z,7.75
2022-09-14T00:14:36.107Z,9.20
2022-09-14T00:16:39.076Z,11.48
2022-09-14T00:18:40.991Z,7.97
2022-09-14T00:20:42.569Z,9.55
2022-09-14T00:22:44.126Z,9.23
2022-09-14T00:24:45.839Z,11.55
2022-09-14T00:26:47.504Z,10.25
2022-09-14T00:28:50.459Z,9.52
2022-09-14T00:30:52.206Z,10.40
2022-09-14T00:32:53.727Z,13.45
2022-09-14T00:34:55.244Z,9.73
2022-09-14T00:36:56.947Z,10.18
2022-09-14T00:39:00.545Z,10.45
2022-09-14T00:41:03.111Z,11.32
2022-09-14T00:43:05.972Z,10.82
2022-09-14T00:45:13.336Z,10.90
2022-09-14T00:47:16.329Z,11.75
2022-09-14T00:49:20.815Z,11.82
2022-09-14T00:51:22.558Z,11.75
2022-09-14T00:53:24.211Z,12.38
2022-09-14T00:55:25.990Z,13.93
2022-09-14T00:57:28.854Z,15.82
2022-09-14T00:59:32.933Z,13.38
2022-09-14T01:01:34.984Z,14.95
2022-09-14T01:03:37.117Z,13.52
2022-09-14T01:05:53.742Z,13.53
2022-09-14T01:07:58.338Z,16.98
2022-09-14T01:10:08.908Z,19.38
2022-09-14T01:12:17.334Z,15.30
2022-09-14T01:14:40.906Z,14.65
2022-09-14T01:18:51.067Z,16.48
2022-09-14T01:21:06.164Z,18.75
2022-09-14T01:23:17.544Z,19.42
2022-09-14T01:25:19.075Z,18.88
2022-09-14T01:27:26.335Z,19.27
2022-09-14T01:29:38.672Z,21.20
2022-09-14T01:31:47.421Z,18.95
2022-09-14T01:33:53.200Z,21.08
2022-09-14T01:35:56.712Z,21.05
2022-09-14T01:38:01.510Z,22.63
2022-09-14T01:40:07.165Z,23.77
2022-09-14T01:42:09.647Z,21.38
2022-09-14T01:44:11.799Z,22.38
2022-09-14T01:46:16.936Z,22.05
2022-09-14T01:48:21.642Z,24.50
2022-09-14T01:50:23.129Z,25.20
2022-09-14T01:52:33.091Z,24.08
2022-09-14T01:54:41.955Z,23.33
2022-09-14T01:56:55.739Z,27.20
2022-09-14T01:59:09.397Z,27.90
2022-09-14T02:01:14.236Z,26.98
2022-09-14T02:03:36.061Z,33.03
2022-09-14T02:05:58.252Z,34.70
2022-09-14T02:08:00.098Z,36.05
2022-09-14T02:10:03.877Z,40.38
2022-09-14T02:12:05.832Z,40.10
2022-09-14T02:14:07.453Z,36.83
2022-09-14T02:16:09.148Z,44.00
2022-09-14T02:18:11.076Z,44.45
2022-09-14T02:20:21.812Z,42.40
2022-09-14T02:22:24.924Z,43.42
2022-09-14T02:24:27.412Z,44.38
2022-09-14T02:26:29.157Z,43.58
2022-09-14T02:28:30.870Z,42.30
2022-09-14T02:30:35.104Z,45.08
2022-09-14T02:33:12.292Z,48.92
2022-09-14T02:35:20.540Z,51.65
2022-09-14T02:37:24.854Z,54.20
2022-09-14T02:39:40.006Z,52.63
2022-09-14T02:42:00.290Z,54.88
2022-09-14T02:44:14.191Z,57.55
2022-09-14T02:46:26.973Z,54.53
2022-09-14T02:48:28.531Z,58.15
2022-09-14T02:50:40.458Z,58.63
2022-09-14T02:52:46.873Z,65.55
2022-09-14T02:54:52.411Z,66.47
2022-09-14T02:56:54.311Z,62.05
2022-09-14T02:58:56.199Z,62.65
2022-09-14T03:00:57.910Z,61.60
2022-09-14T03:02:59.756Z,64.30
2022-09-14T03:05:01.385Z,65.72
2022-09-14T03:07:02.956Z,61.83
2022-09-14T03:09:04.712Z,63.17
2022-09-14T03:11:06.237Z,65.15
2022-09-14T03:13:07.747Z,65.05
2022-09-14T03:15:09.767Z,70.28
2022-09-14T03:17:11.483Z,64.90
2022-09-14T03:19:13.033Z,69.80
2022-09-14T03:21:15.655Z,72.05
2022-09-14T03:23:17.216Z,70.03
2022-09-14T03:25:23.022Z,69.75
2022-09-14T03:27:24.946Z,70.07
2022-09-14T03:29:26.507Z,68.15
2022-09-14T03:31:28.225Z,79.88
2022-09-14T03:33:30.270Z,79.47
2022-09-14T03:35:32.118Z,76.55
2022-09-14T03:37:36.644Z,77.93
2022-09-14T03:39:38.411Z,77.55
2022-09-14T03:41:39.939Z,79.88
2022-09-14T03:43:42.026Z,74.35
2022-09-14T03:45:43.757Z,81.25
2022-09-14T03:47:46.790Z,81.07
2022-09-14T03:51:50.201Z,77.70
2022-09-14T03:53:52.002Z,85.90
2022-09-14T03:55:53.865Z,82.05
2022-09-14T03:57:56.113Z,76.60
2022-09-14T03:59:57.715Z,80.07
2022-09-14T04:02:00.403Z,79.50
2022-09-14T04:04:02.475Z,74.72
2022-09-14T04:06:07.318Z,81.03
2022-09-14T04:08:08.976Z,80.78
2022-09-14T04:10:10.682Z,81.75
2022-09-14T04:12:12.462Z,77.60
2022-09-14T04:14:14.698Z,80.47
2022-09-14T04:18:19.008Z,72.07
2022-09-14T04:20:20.597Z,69.53
2022-09-14T04:22:22.405Z,69.80
2022-09-14T04:24:29.345Z,70.35
2022-09-14T04:26:32.082Z,72.07
2022-09-14T04:28:33.774Z,65.87
2022-09-14T04:30:35.456Z,70.43
2022-09-14T04:32:36.976Z,71.00
2022-09-14T04:34:38.752Z,73.22
2022-09-14T04:36:40.358Z,69.85
2022-09-14T04:38:42.646Z,70.13
2022-09-14T04:40:44.422Z,62.90
2022-09-14T04:42:46.055Z,58.42
2022-09-14T04:44:47.551Z,59.67
2022-09-14T04:46:49.387Z,47.50
2022-09-14T04:48:51.516Z,49.03
2022-09-14T04:50:53.209Z,42.55
2022-09-14T04:52:54.977Z,41.35
2022-09-14T04:54:56.509Z,39.53
2022-09-14T04:56:58.105Z,39.42
2022-09-14T04:59:01.788Z,42.95
2022-09-14T05:01:10.921Z,38.80
2022-09-14T05:03:12.848Z,41.80
2022-09-14T05:05:14.687Z,45.47
2022-09-14T05:07:16.276Z,39.63
2022-09-14T05:09:18.615Z,43.13
2022-09-14T05:11:24.590Z,38.67
2022-09-14T05:13:26.293Z,39.33
2022-09-14T05:15:27.819Z,38.30
2022-09-14T05:17:29.768Z,37.58
2022-09-14T05:19:31.274Z,37.40
2022-09-14T05:21:33.439Z,39.13
2022-09-14T05:23:35.728Z,34.00
2022-09-14T05:25:37.334Z,34.70
2022-09-14T05:27:38.920Z,36.42
2022-09-14T05:29:40.761Z,37.85
2022-09-14T05:31:42.388Z,32.85
2022-09-14T05:33:44.232Z,32.00
2022-09-14T05:35:46.716Z,34.20
2022-09-14T05:37:48.334Z,37.67
2022-09-14T05:39:49.957Z,35.45
2022-09-14T05:41:51.830Z,37.25
2022-09-14T05:43:53.332Z,32.72
2022-09-14T05:45:54.923Z,27.95
2022-09-14T05:48:00.471Z,33.35
2022-09-14T05:50:01.984Z,26.83
2022-09-14T05:52:03.641Z,32.08
2022-09-14T05:54:10.282Z,30.60
2022-09-14T05:56:13.681Z,28.55
2022-09-14T05:58:15.437Z,32.90
2022-09-14T06:00:17.914Z,41.53
2022-09-14T06:02:19.511Z,30.42
2022-09-14T06:04:21.082Z,36.13
2022-09-14T06:06:23.594Z,39.50
2022-09-14T06:08:25.160Z,43.58
2022-09-14T06:10:26.722Z,41.92
2022-09-14T06:12:28.890Z,47.28
2022-09-14T06:14:30.463Z,50.38
2022-09-14T06:16:32.050Z,51.05
2022-09-14T06:18:34.799Z,47.22
2022-09-14T06:20:36.319Z,48.40
2022-09-14T06:22:37.875Z,53.10
2022-09-14T06:24:39.622Z,52.72
2022-09-14T06:26:41.143Z,50.05
2022-09-14T06:28:42.910Z,52.85
2022-09-14T06:30:45.246Z,55.85
2022-09-14T06:32:46.826Z,48.15
2022-09-14T06:34:48.314Z,52.22
2022-09-14T06:36:50.182Z,53.15
2022-09-14T06:38:52.198Z,55.38
2022-09-14T06:40:57.731Z,55.70
2022-09-14T06:43:02.406Z,57.78
2022-09-14T06:45:04.324Z,53.22
2022-09-14T06:47:06.217Z,51.05
2022-09-14T06:49:10.939Z,42.23
2022-09-14T06:51:19.744Z,48.13
2022-09-14T06:53:21.299Z,68.53
2022-09-14T06:55:23.105Z,44.15
2022-09-14T06:57:24.653Z,42.42
2022-09-14T06:59:26.540Z,46.22
2022-09-14T07:01:29.814Z,45.63
2022-09-14T07:03:31.803Z,41.45
2022-09-14T07:05:33.351Z,44.45
2022-09-14T07:07:35.096Z,41.17
2022-09-14T07:09:37.622Z,37.22
2022-09-14T07:11:39.356Z,41.40
2022-09-14T07:13:41.267Z,38.00
2022-09-14T07:15:48.521Z,42.75
2022-09-14T07:17:50.440Z,39.50
2022-09-14T07:19:52.203Z,40.15
2022-09-14T07:21:54.627Z,37.92
2022-09-14T07:23:56.332Z,35.70
2022-09-14T07:26:01.858Z,31.45
2022-09-14T07:28:03.641Z,30.98
2022-09-14T07:30:06.462Z,28.45
2022-09-14T07:32:08.218Z,25.85
2022-09-14T07:34:10.334Z,26.92
2022-09-14T07:36:12.719Z,29.60
2022-09-14T07:38:14.456Z,28.48
2022-09-14T07:40:16.133Z,30.83
2022-09-14T07:42:17.738Z,28.58
2022-09-14T07:44:19.597Z,28.00
2022-09-14T07:46:21.782Z,27.00
2022-09-14T07:48:23.504Z,26.52
2022-09-14T07:50:25.427Z,23.85
2022-09-14T07:52:27.159Z,26.73
2022-09-14T07:54:28.669Z,23.13
2022-09-14T07:56:32.115Z,20.92
2022-09-14T07:58:33.986Z,22.38
2022-09-14T08:00:35.912Z,19.97
2022-09-14T08:02:37.763Z,19.70
2022-09-14T08:04:39.368Z,21.90
2022-09-14T08:06:42.255Z,22.88
2022-09-14T08:08:45.154Z,20.92
2022-09-14T08:12:54.837Z,17.83
2022-09-14T08:14:56.612Z,19.80
2022-09-14T08:16:59.904Z,17.08
2022-09-14T08:19:05.641Z,19.35
2022-09-14T08:21:09.007Z,18.85
2022-09-14T08:23:11.132Z,17.10
2022-09-14T08:25:12.698Z,16.85
2022-09-14T08:27:17.231Z,14.18
2022-09-14T08:29:19.438Z,14.55
2022-09-14T08:33:23.387Z,24.40
2022-09-14T08:35:46.897Z,13.73
2022-09-14T08:37:47.344Z,15.70
2022-09-14T08:39:51.628Z,16.73
2022-09-14T08:41:55.294Z,13.10
2022-09-14T08:44:13.501Z,13.63
2022-09-14T08:46:20.460Z,15.40
2022-09-14T08:48:24.991Z,12.05
2022-09-14T08:50:28.081Z,16.23
2022-09-14T08:52:37.432Z,12.57
2022-09-14T08:54:39.555Z,14.27
2022-09-14T08:56:43.367Z,12.90
2022-09-14T08:58:53.647Z,14.90
2022-09-14T09:01:14.145Z,13.95
2022-09-14T09:03:18.470Z,12.27
2022-09-14T09:05:26.389Z,12.75
2022-09-14T09:07:48.874Z,14.02
2022-09-14T09:09:52.298Z,12.97
2022-09-14T09:11:55.262Z,15.13
2022-09-14T09:16:00.780Z,15.95
2022-09-14T09:18:12.604Z,9.90
2022-09-14T09:20:26.268Z,14.20
2022-09-14T09:22:30.286Z,15.65
2022-09-14T09:24:36.407Z,11.68
2022-09-14T09:26:38.850Z,16.67
2022-09-14T09:28:49.955Z,19.08
2022-09-14T09:30:54.005Z,22.05
2022-09-14T09:33:01.043Z,13.40
2022-09-14T09:35:05.083Z,18.00
2022-09-14T09:37:13.126Z,13.27
2022-09-14T09:39:16.636Z,16.63
2022-09-14T09:41:26.677Z,16.77
2022-09-14T09:43:48.267Z,16.13
2022-09-14T09:45:53.159Z,12.13
2022-09-14T09:47:55.953Z,13.02
2022-09-14T09:52:08.371Z,15.48
2022-09-14T09:54:12.811Z,13.95
2022-09-14T09:56:19.951Z,14.50
2022-09-14T09:58:23.593Z,14.55
2022-09-14T10:00:29.811Z,11.98
2022-09-14T10:02:32.687Z,12.48
2022-09-14T10:04:35.240Z,12.68
2022-09-14T10:08:43.789Z,13.43
2022-09-14T10:10:45.815Z,13.52
2022-09-14T10:12:49.571Z,15.82
2022-09-14T10:15:03.062Z,16.98
2022-09-14T10:17:05.979Z,15.50
2022-09-14T10:19:33.813Z,12.70
2022-09-14T10:21:35.588Z,15.27
2022-09-14T10:23:38.283Z,13.82
2022-09-14T10:25:39.835Z,11.05
2022-09-14T10:27:46.031Z,13.68
2022-09-14T10:29:49.505Z,14.50
2022-09-14T10:31:52.270Z,14.20
2022-09-14T10:33:56.631Z,13.77
2022-09-14T10:36:13.521Z,11.95
2022-09-14T10:38:33.783Z,12.05
2022-09-14T10:40:37.246Z,14.55
2022-09-14T10:42:58.286Z,13.00
2022-09-14T10:45:14.559Z,13.98
2022-09-14T10:47:24.617Z,11.32
2022-09-14T10:49:44.822Z,10.20
2022-09-14T10:51:46.496Z,9.88
2022-09-14T10:53:57.085Z,15.95
2022-09-14T10:56:01.941Z,11.82
2022-09-14T10:58:18.012Z,12.57
2022-09-14T11:00:22.947Z,11.90
2022-09-14T11:02:38.194Z,12.02
2022-09-14T11:04:57.499Z,14.45
2022-09-14T11:07:32.365Z,11.48
2022-09-14T11:09:36.985Z,7.25
2022-09-14T11:11:47.015Z,7.93
2022-09-14T11:14:02.090Z,10.27
2022-09-14T11:16:31.658Z,7.70
2022-09-14T11:18:39.326Z,8.95
2022-09-14T11:20:56.396Z,12.40
2022-09-14T11:23:04.402Z,11.63
2022-09-14T11:25:11.397Z,7.90
2022-09-14T11:27:18.549Z,7.38
2022-09-14T11:29:28.514Z,11.07
2022-09-14T11:31:33.241Z,7.18
2022-09-14T11:33:41.319Z,10.65
2022-09-14T11:35:45.862Z,5.70
2022-09-14T11:38:00.734Z,11.15
2022-09-14T11:40:06.919Z,7.25
2022-09-14T11:42:18.369Z,6.32
2022-09-14T11:44:26.936Z,5.10
2022-09-14T11:47:00.005Z,9.77
2022-09-14T11:49:11.508Z,7.07
2022-09-14T11:51:15.443Z,6.63
2022-09-14T11:53:18.740Z,6.95
2022-09-14T11:57:28.855Z,8.18
2022-09-14T11:59:48.379Z,8.98
2022-09-14T12:01:49.943Z,3.90
2022-09-14T12:03:55.035Z,8.52
2022-09-14T12:06:16.875Z,7.13
2022-09-14T12:08:24.462Z,5.68
2022-09-14T12:10:26.060Z,7.78
2022-09-14T12:12:28.894Z,4.90
2022-09-14T12:14:40.202Z,5.28
2022-09-14T12:17:00.870Z,6.75
2022-09-14T12:19:03.579Z,6.18
2022-09-14T12:21:05.515Z,4.23
2022-09-14T12:23:16.156Z,8.77
2022-09-14T12:25:19.805Z,7.78
2022-09-14T12:27:22.138Z,4.65
2022-09-14T12:29:29.176Z,4.95
2022-09-14T12:31:34.250Z,7.45
2022-09-14T12:33:35.836Z,9.02
2022-09-14T12:35:37.496Z,5.55
2022-09-14T12:37:39.241Z,6.68
2022-09-14T12:40:00.739Z,5.70
2022-09-14T12:42:25.474Z,5.95
2022-09-14T12:44:33.570Z,4.18
2022-09-14T12:46:38.308Z,6.55
2022-09-14T12:48:45.830Z,5.38
2022-09-14T12:50:50.673Z,7.22
2022-09-14T12:53:12.524Z,8.77
2022-09-14T12:55:37.640Z,7.10
2022-09-14T12:57:48.982Z,6.85
2022-09-14T12:59:56.691Z,9.25
2022-09-14T13:01:58.946Z,7.85
2022-09-14T13:04:02.250Z,3.85
2022-09-14T13:06:03.841Z,4.70
2022-09-14T13:08:09.882Z,5.25
2022-09-14T13:10:20.738Z,4.57
2022-09-14T13:12:43.209Z,6.18
2022-09-14T13:14:47.883Z,4.83
2022-09-14T13:16:51.469Z,6.63
2022-09-14T13:18:59.736Z,4.43
2022-09-14T13:21:02.973Z,8.63
2022-09-14T13:23:18.905Z,5.82
2022-09-14T13:25:26.863Z,4.85
2022-09-14T13:27:31.609Z,6.57
2022-09-14T13:29:33.545Z,4.57
2022-09-14T13:31:38.030Z,4.65
2022-09-14T13:33:46.598Z,4.47
2022-09-14T13:35:56.116Z,4.63
2022-09-14T13:37:58.646Z,6.20
2022-09-14T13:40:00.286Z,6.70
2022-09-14T13:42:02.424Z,5.32
2022-09-14T13:44:06.182Z,8.10
2022-09-14T13:46:08.241Z,6.70
2022-09-14T13:48:13.552Z,6.75
2022-09-14T13:50:15.346Z,5.50
2022-09-14T13:52:19.992Z,6.65
2022-09-14T13:54:24.744Z,6.78
2022-09-14T13:56:26.663Z,3.85
2022-09-14T13:58:31.540Z,6.20
2022-09-14T14:01:06.325Z,4.80
2022-09-14T14:03:18.728Z,9.80
2022-09-14T14:05:25.570Z,5.22
2022-09-14T14:07:32.849Z,5.15
2022-09-14T14:09:50.877Z,6.20
2022-09-14T14:11:54.946Z,11.45
2022-09-14T14:13:57.850Z,10.32
2022-09-14T14:16:16.823Z,5.50
2022-09-14T14:18:36.500Z,5.35
2022-09-14T14:20:40.487Z,8.95
2022-09-14T14:22:54.292Z,6.55
2022-09-14T14:25:12.806Z,9.45
2022-09-14T14:27:27.851Z,6.43
2022-09-14T14:29:29.738Z,6.43
2022-09-14T14:31:31.397Z,11.80
2022-09-14T14:33:33.187Z,5.40
2022-09-14T14:35:34.975Z,9.43
2022-09-14T14:37:37.065Z,4.78
2022-09-14T14:41:41.881Z,5.70
2022-09-14T14:43:46.755Z,7.82
2022-09-14T14:45:48.915Z,10.02
2022-09-14T14:47:50.650Z,6.70
2022-09-14T14:49:53.285Z,5.97
2022-09-14T14:53:56.453Z,6.22
2022-09-14T14:55:58.360Z,10.10
2022-09-14T14:58:01.303Z,4.72
2022-09-14T15:00:03.770Z,5.38
2022-09-14T15:02:06.778Z,7.88
2022-09-14T15:04:08.467Z,6.57
2022-09-14T15:06:20.424Z,6.88
2022-09-14T15:08:22.274Z,8.43
2022-09-14T15:10:24.861Z,5.28
2022-09-14T15:12:26.491Z,8.45
2022-09-14T15:14:28.123Z,6.05
2022-09-14T15:16:31.086Z,4.07
2022-09-14T15:18:35.764Z,6.88
2022-09-14T15:20:37.792Z,5.70
2022-09-14T15:22:42.753Z,7.47
2022-09-14T15:24:44.784Z,4.95
2022-09-14T15:26:46.453Z,8.13
2022-09-14T15:28:49.528Z,7.00
2022-09-14T15:32:53.451Z,4.57
2022-09-14T15:34:55.230Z,7.15
2022-09-14T15:36:58.807Z,7.30
2022-09-14T15:39:00.388Z,5.75
2022-09-14T15:41:02.156Z,9.73
2022-09-14T15:43:03.806Z,8.70
2022-09-14T15:45:07.155Z,8.60
2022-09-14T15:47:12.835Z,9.88
2022-09-14T15:49:17.736Z,6.45
2022-09-14T15:51:19.876Z,10.50
2022-09-14T15:53:21.630Z,5.22
2022-09-14T15:55:23.216Z,7.10
2022-09-14T15:57:25.085Z,7.43
2022-09-14T15:59:27.409Z,11.48
2022-09-14T16:01:29.306Z,6.32
2022-09-14T16:03:31.262Z,7.30
2022-09-14T16:05:36.929Z,6.72
2022-09-14T16:07:38.456Z,8.13
2022-09-14T16:09:41.202Z,7.18
2022-09-14T16:11:43.244Z,12.00
2022-09-14T16:13:45.324Z,9.15
2022-09-14T16:15:46.862Z,6.50
2022-09-14T16:17:52.637Z,5.95
2022-09-14T16:19:54.371Z,8.15
2022-09-14T16:21:56.098Z,7.72
2022-09-14T16:24:00.012Z,9.43
2022-09-14T16:26:05.071Z,18.88
2022-09-14T16:28:07.716Z,8.05
2022-09-14T16:30:09.838Z,5.85
2022-09-14T16:32:11.376Z,9.48
2022-09-14T16:34:19.945Z,12.13
2022-09-14T16:36:26.039Z,22.20
2022-09-14T16:38:29.431Z,8.00
2022-09-14T16:40:32.157Z,7.05
2022-09-14T16:42:34.068Z,10.85
2022-09-14T16:44:35.896Z,7.80
2022-09-14T16:46:37.762Z,7.80
2022-09-14T16:48:41.047Z,7.40
2022-09-14T16:50:42.700Z,7.55
2022-09-14T16:52:44.942Z,12.77
2022-09-14T16:54:46.819Z,9.82
2022-09-14T16:56:48.646Z,11.63
2022-09-14T16:58:51.256Z,9.55
2022-09-14T17:00:53.219Z,9.07
2022-09-14T17:02:54.841Z,13.60
2022-09-14T17:04:56.432Z,13.15
2022-09-14T17:06:58.324Z,9.32
2022-09-14T17:09:01.268Z,11.07
2022-09-14T17:13:06.002Z,10.50
2022-09-14T17:15:08.059Z,10.90
2022-09-14T17:17:09.770Z,11.63
2022-09-14T17:19:12.037Z,10.43
2022-09-14T17:21:14.595Z,14.27
2022-09-14T17:23:16.167Z,11.05
2022-09-14T17:25:18.049Z,14.05
2022-09-14T17:27:20.016Z,14.38
2022-09-14T17:29:21.631Z,12.15
2022-09-14T17:31:24.405Z,15.93
2022-09-14T17:33:26.718Z,18.50
2022-09-14T17:35:28.276Z,17.52
2022-09-14T17:37:30.018Z,16.13
2022-09-14T17:39:31.513Z,16.48
2022-09-14T17:41:34.053Z,18.40
2022-09-14T17:43:36.763Z,15.40
2022-09-14T17:45:39.094Z,18.92
2022-09-14T17:47:41.241Z,14.45
2022-09-14T17:49:43.081Z,15.40
2022-09-14T17:51:45.353Z,16.73
2022-09-14T17:53:48.247Z,12.32
2022-09-14T17:55:50.055Z,14.38
2022-09-14T17:57:51.744Z,14.25
2022-09-14T17:59:53.335Z,15.95
2022-09-14T18:01:55.043Z,15.98
2022-09-14T18:03:58.313Z,21.88
2022-09-14T18:06:00.071Z,20.77
2022-09-14T18:08:02.058Z,15.90
2022-09-14T18:10:03.808Z,19.92
2022-09-14T18:12:05.627Z,16.73
2022-09-14T18:14:07.685Z,20.90
2022-09-14T18:16:09.754Z,14.27
2022-09-14T18:18:12.091Z,15.03
2022-09-14T18:20:14.899Z,16.95
2022-09-14T18:22:16.842Z,15.88
2022-09-14T18:24:18.704Z,19.42
2022-09-14T18:26:21.182Z,17.27
2022-09-14T18:28:23.440Z,22.30
2022-09-14T18:30:25.004Z,22.95
2022-09-14T18:32:26.943Z,21.92
2022-09-14T18:34:29.011Z,23.95
2022-09-14T18:36:31.088Z,17.70
2022-09-14T18:38:32.980Z,17.63
2022-09-14T18:40:35.278Z,16.38
2022-09-14T18:42:37.083Z,17.10
2022-09-14T18:44:38.908Z,16.25
2022-09-14T18:46:40.521Z,21.65
2022-09-14T18:48:43.943Z,28.92
2022-09-14T18:50:45.876Z,22.08
2022-09-14T18:52:47.430Z,19.05
2022-09-14T18:54:48.950Z,17.42
2022-09-14T18:56:51.101Z,17.65
2022-09-14T18:58:52.606Z,20.55
2022-09-14T19:00:54.264Z,18.52
2022-09-14T19:02:57.028Z,19.60
2022-09-14T19:04:58.723Z,16.33
2022-09-14T19:07:01.006Z,16.95
2022-09-14T19:09:03.523Z,15.73
2022-09-14T19:11:05.466Z,19.83
2022-09-14T19:13:07.559Z,17.33
2022-09-14T19:15:09.797Z,14.38
2022-09-14T19:17:11.356Z,18.77
2022-09-14T19:19:13.898Z,16.17
2022-09-14T19:21:22.790Z,13.23
2022-09-14T19:23:25.356Z,14.52
2022-09-14T19:25:26.906Z,16.73
2022-09-14T19:27:28.743Z,21.35
2022-09-14T19:29:32.666Z,20.40
2022-09-14T19:31:34.261Z,14.63
2022-09-14T19:33:36.203Z,12.43
2022-09-14T19:35:37.843Z,16.67
2022-09-14T19:37:39.476Z,17.40
2022-09-14T19:39:42.425Z,16.65
2022-09-14T19:41:44.068Z,16.35
2022-09-14T19:43:45.694Z,15.77
2022-09-14T19:45:47.494Z,16.27
2022-09-14T19:47:49.132Z,17.80
2022-09-14T19:49:51.670Z,44.03
2022-09-14T19:51:53.750Z,22.77
2022-09-14T19:53:56.327Z,14.70
2022-09-14T19:55:58.147Z,20.48
2022-09-14T19:58:00.247Z,23.98
2022-09-14T20:00:01.923Z,15.13
2022-09-14T20:02:04.187Z,20.55
2022-09-14T20:04:07.325Z,19.67
2022-09-14T20:06:10.527Z,17.45
2022-09-14T20:08:12.388Z,17.25
2022-09-14T20:10:14.488Z,12.90
2022-09-14T20:12:16.073Z,52.13
2022-09-14T20:14:19.049Z,28.10
2022-09-14T20:16:22.921Z,22.85
2022-09-14T20:18:24.541Z,15.23
2022-09-14T20:20:26.059Z,20.27
2022-09-14T20:22:27.950Z,18.33
2022-09-14T20:24:31.004Z,19.70
2022-09-14T20:28:34.917Z,18.77
2022-09-14T20:30:36.824Z,22.73
2022-09-14T20:32:38.355Z,23.73
2022-09-14T20:34:40.186Z,20.50
2022-09-14T20:36:41.756Z,31.42
2022-09-14T20:38:49.692Z,25.60
2022-09-14T20:41:18.287Z,21.83
2022-09-14T20:43:20.007Z,23.60
2022-09-14T20:45:21.749Z,19.42
2022-09-14T20:47:24.611Z,22.02
2022-09-14T20:49:26.633Z,23.00
2022-09-14T20:51:28.395Z,21.13
2022-09-14T20:53:35.907Z,37.53
2022-09-14T20:55:37.435Z,25.00
2022-09-14T20:57:38.934Z,21.55
2022-09-14T20:59:40.798Z,20.13
2022-09-14T21:01:43.299Z,26.23
2022-09-14T21:03:45.691Z,18.33
2022-09-14T21:05:47.471Z,24.80
2022-09-14T21:07:56.173Z,23.42
2022-09-14T21:09:58.005Z,24.40
2022-09-14T21:12:00.099Z,28.83
2022-09-14T21:14:02.030Z,60.20
2022-09-14T21:16:12.713Z,69.40
2022-09-14T21:18:18.709Z,97.32
2022-09-14T21:20:22.160Z,81.60
2022-09-14T21:22:23.986Z,57.85
2022-09-14T21:24:25.842Z,54.07
2022-09-14T21:26:28.881Z,39.10
2022-09-14T21:30:32.287Z,38.67
2022-09-14T21:32:34.149Z,33.70
2022-09-14T21:34:35.672Z,29.67
2022-09-14T21:36:38.994Z,27.90
2022-09-14T21:38:40.954Z,29.38
2022-09-14T21:40:43.786Z,21.33
2022-09-14T21:44:47.059Z,21.23
2022-09-14T21:46:49.085Z,25.35
2022-09-14T21:48:51.202Z,24.53
2022-09-14T21:51:12.987Z,25.30
2022-09-14T21:53:14.601Z,20.67
2022-09-14T21:55:16.451Z,17.52
2022-09-14T21:57:18.031Z,21.90
2022-09-14T21:59:20.746Z,19.10
2022-09-14T22:03:24.608Z,15.40
2022-09-14T22:05:26.263Z,22.45
2022-09-14T22:07:29.160Z,23.00
2022-09-14T22:09:30.743Z,19.13
2022-09-14T22:11:33.708Z,21.58
2022-09-14T22:13:35.449Z,16.55
2022-09-14T22:15:37.090Z,19.15
2022-09-14T22:17:38.654Z,22.00
2022-09-14T22:19:41.818Z,16.98
2022-09-14T22:23:49.053Z,15.45
2022-09-14T22:25:51.111Z,18.25
2022-09-14T22:27:52.643Z,15.07
2022-09-14T22:29:54.165Z,16.90
2022-09-14T22:31:55.905Z,17.98
2022-09-14T22:33:58.174Z,24.40
2022-09-14T22:36:01.542Z,37.80
2022-09-14T22:38:03.323Z,23.23
2022-09-14T22:40:05.709Z,14.02
2022-09-14T22:42:07.331Z,22.52
2022-09-14T22:44:09.319Z,21.45
2022-09-14T22:46:11.284Z,24.58
2022-09-14T22:48:12.811Z,15.60
2022-09-14T22:50:14.875Z,17.10
2022-09-14T22:52:16.510Z,17.60
2022-09-14T22:54:18.410Z,17.15
2022-09-14T22:56:23.248Z,18.60
2022-09-14T22:58:26.259Z,14.57
2022-09-14T23:02:30.617Z,16.97
2022-09-14T23:04:32.656Z,16.10
2022-09-14T23:06:35.572Z,17.92
2022-09-14T23:08:37.643Z,17.95
2022-09-14T23:10:39.571Z,16.30
2022-09-14T23:12:41.152Z,15.57
2022-09-14T23:14:42.938Z,15.27
2022-09-14T23:16:45.161Z,22.40
2022-09-14T23:18:51.240Z,19.80
2022-09-14T23:20:53.235Z,15.50
2022-09-14T23:22:54.822Z,17.05
2022-09-14T23:24:56.336Z,14.73
2022-09-14T23:26:58.301Z,14.98
2022-09-14T23:29:01.474Z,20.63
2022-09-14T23:31:03.453Z,16.35
2022-09-14T23:33:05.612Z,15.90
2022-09-14T23:35:07.353Z,19.48
2022-09-14T23:37:09.088Z,19.23
2022-09-14T23:39:10.847Z,18.15
2022-09-14T23:41:12.354Z,20.98
2022-09-14T23:43:13.911Z,19.77
2022-09-14T23:45:15.940Z,18.55
2022-09-14T23:47:18.158Z,18.13
2022-09-14T23:49:19.819Z,18.30
2022-09-14T23:51:21.542Z,15.32
2022-09-14T23:53:23.051Z,17.98
2022-09-14T23:55:24.790Z,16.20
2022-09-14T23:57:26.520Z,17.27
2022-09-14T23:59:28.027Z,15.95
